createdAt,value
2019-04-23T00:04:37.101Z,7.17
2019-04-23T00:09:47.002Z,6.75
2019-04-23T00:15:04.888Z,6.97
2019-04-23T00:20:05.748Z,6.75
2019-04-23T00:25:28.975Z,7.00
2019-04-23T00:30:11.519Z,7.00
2019-04-23T00:35:23.675Z,6.90
2019-04-23T00:40:25.966Z,7.28
2019-04-23T00:45:34.634Z,7.40
2019-04-23T00:55:43.069Z,6.70
2019-04-23T01:00:47.465Z,7.37
2019-04-23T01:05:46.649Z,7.35
2019-04-23T01:11:01.865Z,7.12
2019-04-23T01:16:05.686Z,7.62
2019-04-23T01:20:54.399Z,7.37
2019-04-23T01:26:16.584Z,7.62
2019-04-23T01:31:29.011Z,6.70
2019-04-23T01:36:34.695Z,7.05
2019-04-23T01:41:41.175Z,7.30
2019-04-23T01:46:49.276Z,7.03
2019-04-23T01:51:54.912Z,6.92
2019-04-23T01:56:55.005Z,6.53
2019-04-23T02:02:05.431Z,7.47
2019-04-23T02:07:06.544Z,7.00
2019-04-23T02:12:11.492Z,6.78
2019-04-23T02:17:25.467Z,6.50
2019-04-23T02:23:04.862Z,6.80
2019-04-23T02:27:54.392Z,6.00
2019-04-23T02:33:10.987Z,5.92
2019-04-23T02:38:13.503Z,6.20
2019-04-23T02:43:12.671Z,5.90
2019-04-23T02:53:39.574Z,5.97
2019-04-23T02:58:46.015Z,5.53
2019-04-23T03:04:17.467Z,5.60
2019-04-23T03:08:39.959Z,5.87
2019-04-23T03:24:25.140Z,5.70
2019-04-23T03:39:40.105Z,5.67
2019-04-23T03:44:39.804Z,5.83
2019-04-23T03:54:45.545Z,5.50
2019-04-23T03:59:55.107Z,5.60
2019-04-23T04:04:57.950Z,6.10
2019-04-23T04:20:19.612Z,6.83
2019-04-23T04:25:26.005Z,6.87
2019-04-23T04:30:27.355Z,7.08
2019-04-23T04:35:23.083Z,7.37
2019-04-23T04:40:39.164Z,7.22
2019-04-23T04:55:54.833Z,7.70
2019-04-23T05:26:25.087Z,7.62
2019-04-23T05:36:30.785Z,17.85
2019-04-23T05:41:36.855Z,10.20
2019-04-23T05:46:52.342Z,8.78
2019-04-23T05:51:50.968Z,8.73
2019-04-23T05:57:04.683Z,8.65
2019-04-23T06:12:06.077Z,7.72
2019-04-23T06:27:28.973Z,7.50
2019-04-23T06:32:29.428Z,7.50
2019-04-23T06:42:37.633Z,7.12
2019-04-23T06:47:43.050Z,7.37
2019-04-23T06:52:48.527Z,7.50
2019-04-23T06:57:58.764Z,6.35
2019-04-23T07:03:00.903Z,6.55
2019-04-23T07:08:05.899Z,7.00
2019-04-23T07:13:10.938Z,6.33
2019-04-23T07:18:16.295Z,7.08
2019-04-23T07:23:35.691Z,7.20
2019-04-23T07:28:32.549Z,7.45
2019-04-23T07:33:35.098Z,7.15
2019-04-23T07:39:01.595Z,8.05
2019-04-23T07:44:06.280Z,14.65
2019-04-23T07:49:02.912Z,12.35
2019-04-23T07:54:19.362Z,8.15
2019-04-23T07:59:22.753Z,7.65
2019-04-23T08:04:30.197Z,8.10
2019-04-23T08:09:33.854Z,7.12
2019-04-23T08:14:32.685Z,6.90
2019-04-23T08:19:49.853Z,6.08
2019-04-23T08:24:51.052Z,6.17
2019-04-23T08:29:43.948Z,5.60
2019-04-23T08:34:58.619Z,5.67
2019-04-23T08:40:04.297Z,6.42
2019-04-23T08:45:31.385Z,7.47
2019-04-23T08:50:29.701Z,6.95
2019-04-23T08:55:38.757Z,7.20
2019-04-23T09:00:49.885Z,7.53
2019-04-23T09:10:58.073Z,8.53
2019-04-23T09:15:56.199Z,8.00
2019-04-23T09:21:05.846Z,7.40
2019-04-23T09:26:02.398Z,8.15
2019-04-23T09:31:42.016Z,8.00
2019-04-23T09:36:40.613Z,8.48
2019-04-23T09:42:04.793Z,6.53
2019-04-23T09:47:14.012Z,6.47
2019-04-23T09:57:17.156Z,7.85
2019-04-23T10:02:20.167Z,8.65
2019-04-23T10:07:17.957Z,9.18
2019-04-23T10:12:11.539Z,8.55
2019-04-23T10:17:16.076Z,8.33
2019-04-23T10:22:19.977Z,9.20
2019-04-23T10:27:25.153Z,9.00
2019-04-23T10:32:29.814Z,9.70
2019-04-23T10:37:46.097Z,10.20
2019-04-23T10:42:43.243Z,10.30
2019-04-23T10:53:30.003Z,7.83
2019-04-23T10:58:36.482Z,7.62
2019-04-23T11:04:00.428Z,7.12
2019-04-23T11:08:44.018Z,7.00
2019-04-23T11:14:04.911Z,7.20
2019-04-23T11:19:10.566Z,6.90
2019-04-23T11:24:20.772Z,6.50
2019-04-23T11:29:23.109Z,6.15
2019-04-23T11:34:34.181Z,6.47
2019-04-23T11:39:32.646Z,6.17
2019-04-23T11:44:36.770Z,7.87
2019-04-23T11:54:43.562Z,10.45
2019-04-23T12:00:02.094Z,10.30
2019-04-23T12:15:25.269Z,8.38
2019-04-23T12:20:26.839Z,8.40
2019-04-23T12:30:39.427Z,8.48
2019-04-23T12:35:35.512Z,8.00
2019-04-23T12:40:43.195Z,7.67
2019-04-23T12:46:02.127Z,7.90
2019-04-23T12:56:06.864Z,7.70
2019-04-23T13:01:05.254Z,10.18
2019-04-23T13:06:08.081Z,7.70
2019-04-23T13:11:21.534Z,7.97
2019-04-23T13:16:25.374Z,7.83
2019-04-23T13:26:30.894Z,7.95
2019-04-23T13:31:34.642Z,8.60
2019-04-23T13:36:46.895Z,8.10
2019-04-23T13:41:48.256Z,9.07
2019-04-23T13:47:02.931Z,7.90
2019-04-23T13:52:12.788Z,7.80
2019-04-23T13:57:34.775Z,9.60
2019-04-23T14:02:23.440Z,7.95
2019-04-23T14:07:23.311Z,8.68
2019-04-23T14:12:26.090Z,7.97
2019-04-23T14:17:38.071Z,8.78
2019-04-23T14:23:00.364Z,8.83
2019-04-23T14:28:08.094Z,8.10
2019-04-23T14:32:49.874Z,7.17
2019-04-23T14:38:09.485Z,7.55
2019-04-23T14:43:10.939Z,7.05
2019-04-23T14:48:08.896Z,7.47
2019-04-23T14:53:12.613Z,7.55
2019-04-23T14:58:20.621Z,7.20
2019-04-23T15:13:28.027Z,6.95
2019-04-23T15:28:35.838Z,7.17
2019-04-23T15:34:07.549Z,7.70
2019-04-23T15:39:40.629Z,8.18
2019-04-23T15:44:19.302Z,7.23
2019-04-23T15:59:43.946Z,7.57
2019-04-23T16:04:03.506Z,7.45
2019-04-23T16:09:26.145Z,7.65
2019-04-23T16:15:00.247Z,7.72
2019-04-23T16:30:28.730Z,10.03
2019-04-23T16:40:28.346Z,8.05
2019-04-23T16:50:57.865Z,8.05
2019-04-23T17:01:02.530Z,8.15
2019-04-23T17:05:57.248Z,7.83
2019-04-23T17:11:10.061Z,7.42
2019-04-23T17:21:23.298Z,7.72
2019-04-23T17:26:19.113Z,7.90
2019-04-23T17:31:30.836Z,7.60
2019-04-23T17:36:34.877Z,7.85
2019-04-23T17:42:00.147Z,7.20
2019-04-23T17:47:02.750Z,7.70
2019-04-23T17:52:07.095Z,7.55
2019-04-23T17:57:07.573Z,7.55
2019-04-23T18:02:39.928Z,7.42
2019-04-23T18:07:36.287Z,7.20
2019-04-23T18:12:36.788Z,6.97
2019-04-23T18:17:41.310Z,6.70
2019-04-23T18:22:42.255Z,7.20
2019-04-23T18:27:48.256Z,6.70
2019-04-23T18:33:37.985Z,7.30
2019-04-23T18:38:12.564Z,7.03
2019-04-23T18:43:20.198Z,7.42
2019-04-23T18:53:43.662Z,7.20
2019-04-23T19:03:57.465Z,7.60
2019-04-23T19:14:12.717Z,7.45
2019-04-23T19:19:23.639Z,7.10
2019-04-23T19:24:22.111Z,7.35
2019-04-23T19:29:39.611Z,7.33
2019-04-23T19:34:35.660Z,6.80
2019-04-23T19:39:48.387Z,7.90
2019-04-23T19:49:51.299Z,7.20
2019-04-23T19:54:55.415Z,7.28
2019-04-23T19:59:55.267Z,7.30
2019-04-23T20:05:06.331Z,7.40
2019-04-23T20:10:03.650Z,7.08
2019-04-23T20:15:08.278Z,6.65
2019-04-23T20:20:19.137Z,6.90
2019-04-23T20:25:56.475Z,6.87
2019-04-23T20:31:50.498Z,6.87
2019-04-23T20:35:58.297Z,7.22
2019-04-23T20:41:05.749Z,6.70
2019-04-23T20:46:14.306Z,6.70
2019-04-23T20:51:24.672Z,6.30
2019-04-23T20:56:36.563Z,6.15
2019-04-23T21:02:03.264Z,6.15
2019-04-23T21:07:03.216Z,5.80
2019-04-23T21:17:04.091Z,5.25
2019-04-23T21:27:35.489Z,5.17
2019-04-23T21:32:33.430Z,5.20
2019-04-23T21:37:39.301Z,5.08
2019-04-23T21:42:55.971Z,5.22
2019-04-23T21:48:01.650Z,5.17
2019-04-23T21:52:58.202Z,5.00
2019-04-23T21:58:18.982Z,4.97
2019-04-23T22:03:19.688Z,4.83
2019-04-23T22:08:35.474Z,5.03
2019-04-23T22:13:29.515Z,5.03
2019-04-23T22:18:38.062Z,5.03
2019-04-23T22:23:40.682Z,5.07
2019-04-23T22:28:48.938Z,4.80
2019-04-23T22:34:00.348Z,4.77
2019-04-23T22:38:49.285Z,4.90
2019-04-23T22:49:18.003Z,5.08
2019-04-23T23:04:20.211Z,4.70
2019-04-23T23:09:28.747Z,4.67
2019-04-23T23:14:28.011Z,4.83
2019-04-23T23:19:38.986Z,5.12
2019-04-23T23:24:53.735Z,4.92
2019-04-23T23:29:58.137Z,5.00
2019-04-23T23:35:07.898Z,4.50
2019-04-23T23:40:04.728Z,5.10
2019-04-23T23:45:12.424Z,4.80
2019-04-23T23:55:16.080Z,4.47
